sensor_id;sensor_type;location;lat;lon;timestamp;P1;durP1;ratioP1;P2;durP2;ratioP2
31676;SDS011;18385;51.572;6.578;2023-02-28T00:01:11;4.38;;;1.98;;
31676;SDS011;18385;51.572;6.578;2023-02-28T00:03:38;5.45;;;2.70;;
31676;SDS011;18385;51.572;6.578;2023-02-28T00:06:04;6.32;;;2.53;;
31676;SDS011;18385;51.572;6.578;2023-02-28T00:08:31;5.93;;;2.28;;
31676;SDS011;18385;51.572;6.578;2023-02-28T00:11:00;3.40;;;1.88;;
31676;SDS011;18385;51.572;6.578;2023-02-28T00:13:27;3.70;;;2.05;;
31676;SDS011;18385;51.572;6.578;2023-02-28T00:16:02;4.50;;;2.00;;
31676;SDS011;18385;51.572;6.578;2023-02-28T00:18:30;7.47;;;2.53;;
31676;SDS011;18385;51.572;6.578;2023-02-28T00:20:57;5.15;;;2.22;;
31676;SDS011;18385;51.572;6.578;2023-02-28T00:23:23;4.53;;;2.20;;
31676;SDS011;18385;51.572;6.578;2023-02-28T00:25:48;5.20;;;2.10;;
31676;SDS011;18385;51.572;6.578;2023-02-28T00:28:14;6.20;;;2.40;;
31676;SDS011;18385;51.572;6.578;2023-02-28T00:30:40;6.00;;;2.25;;
31676;SDS011;18385;51.572;6.578;2023-02-28T00:33:06;4.95;;;2.38;;
31676;SDS011;18385;51.572;6.578;2023-02-28T00:35:32;4.68;;;2.45;;
31676;SDS011;18385;51.572;6.578;2023-02-28T00:37:58;6.18;;;2.08;;
31676;SDS011;18385;51.572;6.578;2023-02-28T00:40:25;4.10;;;2.17;;
31676;SDS011;18385;51.572;6.578;2023-02-28T00:42:51;7.80;;;2.55;;
31676;SDS011;18385;51.572;6.578;2023-02-28T00:45:17;7.05;;;2.20;;
31676;SDS011;18385;51.572;6.578;2023-02-28T00:47:43;6.63;;;2.25;;
31676;SDS011;18385;51.572;6.578;2023-02-28T00:50:11;4.53;;;1.98;;
31676;SDS011;18385;51.572;6.578;2023-02-28T00:52:37;8.02;;;2.92;;
31676;SDS011;18385;51.572;6.578;2023-02-28T00:55:03;6.30;;;2.30;;
31676;SDS011;18385;51.572;6.578;2023-02-28T00:57:29;6.50;;;2.20;;
31676;SDS011;18385;51.572;6.578;2023-02-28T00:59:55;7.22;;;2.60;;
31676;SDS011;18385;51.572;6.578;2023-02-28T01:02:21;7.30;;;2.20;;
31676;SDS011;18385;51.572;6.578;2023-02-28T01:04:47;4.97;;;2.53;;
31676;SDS011;18385;51.572;6.578;2023-02-28T01:07:13;5.68;;;2.30;;
31676;SDS011;18385;51.572;6.578;2023-02-28T01:09:40;6.25;;;2.53;;
31676;SDS011;18385;51.572;6.578;2023-02-28T01:12:06;4.85;;;2.25;;
31676;SDS011;18385;51.572;6.578;2023-02-28T01:14:33;5.70;;;2.00;;
31676;SDS011;18385;51.572;6.578;2023-02-28T01:17:00;4.47;;;2.38;;
31676;SDS011;18385;51.572;6.578;2023-02-28T01:19:25;7.30;;;2.55;;
31676;SDS011;18385;51.572;6.578;2023-02-28T01:21:51;5.20;;;2.70;;
31676;SDS011;18385;51.572;6.578;2023-02-28T01:24:17;5.70;;;2.30;;
31676;SDS011;18385;51.572;6.578;2023-02-28T01:26:43;4.50;;;1.80;;
31676;SDS011;18385;51.572;6.578;2023-02-28T01:29:09;8.90;;;2.40;;
31676;SDS011;18385;51.572;6.578;2023-02-28T01:31:35;7.60;;;3.03;;
31676;SDS011;18385;51.572;6.578;2023-02-28T01:34:01;6.35;;;2.33;;
31676;SDS011;18385;51.572;6.578;2023-02-28T01:36:29;5.82;;;2.25;;
31676;SDS011;18385;51.572;6.578;2023-02-28T01:38:55;6.72;;;2.10;;
31676;SDS011;18385;51.572;6.578;2023-02-28T01:41:22;4.80;;;2.15;;
31676;SDS011;18385;51.572;6.578;2023-02-28T01:46:59;5.82;;;2.20;;
31676;SDS011;18385;51.572;6.578;2023-02-28T01:49:25;5.15;;;2.45;;
31676;SDS011;18385;51.572;6.578;2023-02-28T01:51:53;4.28;;;2.30;;
31676;SDS011;18385;51.572;6.578;2023-02-28T01:54:29;4.68;;;2.28;;
31676;SDS011;18385;51.572;6.578;2023-02-28T01:56:58;5.80;;;1.95;;
31676;SDS011;18385;51.572;6.578;2023-02-28T01:59:26;7.63;;;2.58;;
31676;SDS011;18385;51.572;6.578;2023-02-28T02:02:05;7.47;;;2.47;;
31676;SDS011;18385;51.572;6.578;2023-02-28T02:04:32;6.55;;;2.42;;
31676;SDS011;18385;51.572;6.578;2023-02-28T02:07:03;5.43;;;2.35;;
31676;SDS011;18385;51.572;6.578;2023-02-28T02:09:29;4.00;;;2.08;;
31676;SDS011;18385;51.572;6.578;2023-02-28T02:11:55;6.03;;;2.53;;
31676;SDS011;18385;51.572;6.578;2023-02-28T02:14:45;5.35;;;2.40;;
31676;SDS011;18385;51.572;6.578;2023-02-28T02:17:28;4.95;;;2.15;;
31676;SDS011;18385;51.572;6.578;2023-02-28T02:22:54;4.55;;;2.00;;
31676;SDS011;18385;51.572;6.578;2023-02-28T02:25:54;5.05;;;2.10;;
31676;SDS011;18385;51.572;6.578;2023-02-28T02:39:11;4.22;;;2.15;;
31676;SDS011;18385;51.572;6.578;2023-02-28T02:41:51;5.80;;;2.40;;
31676;SDS011;18385;51.572;6.578;2023-02-28T02:46:45;8.05;;;2.58;;
31676;SDS011;18385;51.572;6.578;2023-02-28T02:49:16;7.50;;;3.17;;
31676;SDS011;18385;51.572;6.578;2023-02-28T02:51:51;6.18;;;2.55;;
31676;SDS011;18385;51.572;6.578;2023-02-28T02:54:32;5.18;;;2.58;;
31676;SDS011;18385;51.572;6.578;2023-02-28T02:57:02;5.90;;;2.78;;
31676;SDS011;18385;51.572;6.578;2023-02-28T02:59:31;4.60;;;2.13;;
31676;SDS011;18385;51.572;6.578;2023-02-28T03:01:59;8.07;;;2.40;;
31676;SDS011;18385;51.572;6.578;2023-02-28T03:04:31;4.32;;;2.38;;
31676;SDS011;18385;51.572;6.578;2023-02-28T03:07:00;8.07;;;2.40;;
31676;SDS011;18385;51.572;6.578;2023-02-28T03:09:26;7.22;;;2.13;;
31676;SDS011;18385;51.572;6.578;2023-02-28T03:11:52;5.00;;;2.08;;
31676;SDS011;18385;51.572;6.578;2023-02-28T03:16:52;5.45;;;2.38;;
31676;SDS011;18385;51.572;6.578;2023-02-28T03:27:41;5.68;;;2.10;;
31676;SDS011;18385;51.572;6.578;2023-02-28T03:30:15;7.85;;;2.50;;
31676;SDS011;18385;51.572;6.578;2023-02-28T03:33:17;3.17;;;2.00;;
31676;SDS011;18385;51.572;6.578;2023-02-28T03:38:29;6.90;;;2.40;;
31676;SDS011;18385;51.572;6.578;2023-02-28T03:41:09;5.00;;;1.88;;
31676;SDS011;18385;51.572;6.578;2023-02-28T03:43:40;4.63;;;1.88;;
31676;SDS011;18385;51.572;6.578;2023-02-28T03:46:10;4.40;;;1.92;;
31676;SDS011;18385;51.572;6.578;2023-02-28T03:48:44;7.32;;;2.08;;
31676;SDS011;18385;51.572;6.578;2023-02-28T03:51:15;6.32;;;2.17;;
31676;SDS011;18385;51.572;6.578;2023-02-28T03:56:19;5.53;;;2.00;;
31676;SDS011;18385;51.572;6.578;2023-02-28T03:58:57;5.93;;;2.22;;
31676;SDS011;18385;51.572;6.578;2023-02-28T04:01:38;3.97;;;2.00;;
31676;SDS011;18385;51.572;6.578;2023-02-28T04:04:08;6.25;;;2.17;;
31676;SDS011;18385;51.572;6.578;2023-02-28T04:06:35;4.22;;;1.85;;
31676;SDS011;18385;51.572;6.578;2023-02-28T04:09:02;3.20;;;1.95;;
31676;SDS011;18385;51.572;6.578;2023-02-28T04:14:00;18.75;;;6.22;;
31676;SDS011;18385;51.572;6.578;2023-02-28T04:16:27;7.43;;;2.97;;
31676;SDS011;18385;51.572;6.578;2023-02-28T04:18:54;13.90;;;3.80;;
31676;SDS011;18385;51.572;6.578;2023-02-28T04:21:27;6.20;;;2.25;;
31676;SDS011;18385;51.572;6.578;2023-02-28T04:23:54;5.82;;;2.33;;
31676;SDS011;18385;51.572;6.578;2023-02-28T04:26:20;9.23;;;2.97;;
31676;SDS011;18385;51.572;6.578;2023-02-28T04:28:45;8.55;;;2.35;;
31676;SDS011;18385;51.572;6.578;2023-02-28T04:31:11;4.45;;;1.80;;
31676;SDS011;18385;51.572;6.578;2023-02-28T04:33:37;5.97;;;2.83;;
31676;SDS011;18385;51.572;6.578;2023-02-28T04:36:06;4.60;;;2.25;;
31676;SDS011;18385;51.572;6.578;2023-02-28T04:38:34;3.30;;;1.75;;
31676;SDS011;18385;51.572;6.578;2023-02-28T04:41:01;5.45;;;1.98;;
31676;SDS011;18385;51.572;6.578;2023-02-28T04:43:27;6.38;;;2.13;;
31676;SDS011;18385;51.572;6.578;2023-02-28T04:45:53;5.55;;;2.22;;
31676;SDS011;18385;51.572;6.578;2023-02-28T04:48:25;3.45;;;2.00;;
31676;SDS011;18385;51.572;6.578;2023-02-28T04:50:52;6.55;;;2.05;;
31676;SDS011;18385;51.572;6.578;2023-02-28T04:53:18;4.38;;;1.70;;
31676;SDS011;18385;51.572;6.578;2023-02-28T04:55:44;4.45;;;1.73;;
31676;SDS011;18385;51.572;6.578;2023-02-28T04:58:11;3.47;;;1.88;;
31676;SDS011;18385;51.572;6.578;2023-02-28T05:00:37;5.57;;;1.50;;
31676;SDS011;18385;51.572;6.578;2023-02-28T05:03:03;6.13;;;1.95;;
31676;SDS011;18385;51.572;6.578;2023-02-28T05:05:29;4.90;;;1.85;;
31676;SDS011;18385;51.572;6.578;2023-02-28T05:07:54;6.00;;;1.90;;
31676;SDS011;18385;51.572;6.578;2023-02-28T05:10:21;2.50;;;1.52;;
31676;SDS011;18385;51.572;6.578;2023-02-28T05:12:49;5.68;;;1.92;;
31676;SDS011;18385;51.572;6.578;2023-02-28T05:15:15;5.30;;;1.88;;
31676;SDS011;18385;51.572;6.578;2023-02-28T05:17:41;4.68;;;1.80;;
31676;SDS011;18385;51.572;6.578;2023-02-28T05:20:08;6.65;;;1.80;;
31676;SDS011;18385;51.572;6.578;2023-02-28T05:22:38;3.20;;;1.98;;
31676;SDS011;18385;51.572;6.578;2023-02-28T05:25:05;5.03;;;1.70;;
31676;SDS011;18385;51.572;6.578;2023-02-28T05:27:31;2.45;;;1.40;;
31676;SDS011;18385;51.572;6.578;2023-02-28T05:29:57;5.45;;;1.83;;
31676;SDS011;18385;51.572;6.578;2023-02-28T05:32:24;3.35;;;1.70;;
31676;SDS011;18385;51.572;6.578;2023-02-28T05:34:49;3.65;;;1.67;;
31676;SDS011;18385;51.572;6.578;2023-02-28T05:37:15;2.35;;;1.50;;
31676;SDS011;18385;51.572;6.578;2023-02-28T05:39:41;4.25;;;2.10;;
31676;SDS011;18385;51.572;6.578;2023-02-28T05:42:07;5.28;;;2.65;;
31676;SDS011;18385;51.572;6.578;2023-02-28T05:44:34;4.57;;;2.35;;
31676;SDS011;18385;51.572;6.578;2023-02-28T05:47:00;4.63;;;2.47;;
31676;SDS011;18385;51.572;6.578;2023-02-28T05:49:26;6.93;;;2.38;;
31676;SDS011;18385;51.572;6.578;2023-02-28T05:51:52;3.95;;;1.92;;
31676;SDS011;18385;51.572;6.578;2023-02-28T05:54:17;5.28;;;2.00;;
31676;SDS011;18385;51.572;6.578;2023-02-28T05:56:43;3.63;;;1.80;;
31676;SDS011;18385;51.572;6.578;2023-02-28T05:59:10;4.22;;;1.80;;
31676;SDS011;18385;51.572;6.578;2023-02-28T06:01:38;5.30;;;2.10;;
31676;SDS011;18385;51.572;6.578;2023-02-28T06:04:13;4.03;;;2.10;;
31676;SDS011;18385;51.572;6.578;2023-02-28T06:06:48;4.63;;;1.85;;
31676;SDS011;18385;51.572;6.578;2023-02-28T06:09:15;4.05;;;2.10;;
31676;SDS011;18385;51.572;6.578;2023-02-28T06:11:42;4.38;;;2.20;;
31676;SDS011;18385;51.572;6.578;2023-02-28T06:14:10;7.57;;;2.30;;
31676;SDS011;18385;51.572;6.578;2023-02-28T06:16:42;3.83;;;1.90;;
31676;SDS011;18385;51.572;6.578;2023-02-28T06:19:08;4.72;;;1.98;;
31676;SDS011;18385;51.572;6.578;2023-02-28T06:21:35;5.53;;;2.35;;
31676;SDS011;18385;51.572;6.578;2023-02-28T06:24:01;4.30;;;2.10;;
31676;SDS011;18385;51.572;6.578;2023-02-28T06:26:27;8.57;;;2.30;;
31676;SDS011;18385;51.572;6.578;2023-02-28T06:28:53;5.45;;;1.95;;
31676;SDS011;18385;51.572;6.578;2023-02-28T06:31:20;3.35;;;1.73;;
31676;SDS011;18385;51.572;6.578;2023-02-28T06:33:47;3.20;;;2.03;;
31676;SDS011;18385;51.572;6.578;2023-02-28T06:36:13;3.63;;;1.90;;
31676;SDS011;18385;51.572;6.578;2023-02-28T06:38:40;5.03;;;1.80;;
31676;SDS011;18385;51.572;6.578;2023-02-28T06:41:07;4.13;;;2.00;;
31676;SDS011;18385;51.572;6.578;2023-02-28T06:43:34;5.47;;;2.50;;
31676;SDS011;18385;51.572;6.578;2023-02-28T06:46:06;3.78;;;1.90;;
31676;SDS011;18385;51.572;6.578;2023-02-28T06:48:33;3.55;;;1.75;;
31676;SDS011;18385;51.572;6.578;2023-02-28T06:51:10;5.25;;;2.08;;
31676;SDS011;18385;51.572;6.578;2023-02-28T06:53:39;2.38;;;1.38;;
31676;SDS011;18385;51.572;6.578;2023-02-28T06:56:10;3.75;;;1.70;;
31676;SDS011;18385;51.572;6.578;2023-02-28T06:58:38;5.95;;;1.90;;
31676;SDS011;18385;51.572;6.578;2023-02-28T07:01:04;4.10;;;2.03;;
31676;SDS011;18385;51.572;6.578;2023-02-28T07:03:31;3.30;;;1.92;;
31676;SDS011;18385;51.572;6.578;2023-02-28T07:05:57;4.28;;;1.50;;
31676;SDS011;18385;51.572;6.578;2023-02-28T07:08:23;5.00;;;1.80;;
31676;SDS011;18385;51.572;6.578;2023-02-28T07:10:53;4.20;;;2.05;;
31676;SDS011;18385;51.572;6.578;2023-02-28T07:13:19;4.15;;;1.60;;
31676;SDS011;18385;51.572;6.578;2023-02-28T07:15:56;3.90;;;1.73;;
31676;SDS011;18385;51.572;6.578;2023-02-28T07:18:23;5.72;;;1.90;;
31676;SDS011;18385;51.572;6.578;2023-02-28T07:20:49;3.38;;;1.52;;
31676;SDS011;18385;51.572;6.578;2023-02-28T07:23:15;2.92;;;1.58;;
31676;SDS011;18385;51.572;6.578;2023-02-28T07:25:40;3.90;;;1.52;;
31676;SDS011;18385;51.572;6.578;2023-02-28T07:28:06;5.57;;;1.90;;
31676;SDS011;18385;51.572;6.578;2023-02-28T07:30:32;4.90;;;1.85;;
31676;SDS011;18385;51.572;6.578;2023-02-28T07:32:57;4.65;;;1.75;;
31676;SDS011;18385;51.572;6.578;2023-02-28T07:35:23;4.35;;;1.75;;
31676;SDS011;18385;51.572;6.578;2023-02-28T07:37:49;3.53;;;1.33;;
31676;SDS011;18385;51.572;6.578;2023-02-28T07:40:15;5.38;;;1.65;;
31676;SDS011;18385;51.572;6.578;2023-02-28T07:42:42;3.90;;;1.85;;
31676;SDS011;18385;51.572;6.578;2023-02-28T07:45:09;3.28;;;1.70;;
31676;SDS011;18385;51.572;6.578;2023-02-28T07:47:40;3.75;;;1.50;;
31676;SDS011;18385;51.572;6.578;2023-02-28T07:50:07;5.93;;;2.00;;
31676;SDS011;18385;51.572;6.578;2023-02-28T07:52:36;3.28;;;1.52;;
31676;SDS011;18385;51.572;6.578;2023-02-28T07:55:02;4.47;;;2.00;;
31676;SDS011;18385;51.572;6.578;2023-02-28T07:57:28;3.92;;;1.70;;
31676;SDS011;18385;51.572;6.578;2023-02-28T07:59:53;6.53;;;2.17;;
31676;SDS011;18385;51.572;6.578;2023-02-28T08:02:19;4.78;;;1.95;;
31676;SDS011;18385;51.572;6.578;2023-02-28T08:04:44;2.83;;;1.60;;
31676;SDS011;18385;51.572;6.578;2023-02-28T08:07:12;4.80;;;1.95;;
31676;SDS011;18385;51.572;6.578;2023-02-28T08:09:38;4.53;;;2.03;;
31676;SDS011;18385;51.572;6.578;2023-02-28T08:12:05;3.78;;;1.75;;
31676;SDS011;18385;51.572;6.578;2023-02-28T08:14:31;3.92;;;1.70;;
31676;SDS011;18385;51.572;6.578;2023-02-28T08:16:57;3.35;;;1.65;;
31676;SDS011;18385;51.572;6.578;2023-02-28T08:19:23;4.63;;;2.03;;
31676;SDS011;18385;51.572;6.578;2023-02-28T08:21:48;3.63;;;1.75;;
31676;SDS011;18385;51.572;6.578;2023-02-28T08:24:14;2.95;;;1.80;;
31676;SDS011;18385;51.572;6.578;2023-02-28T08:26:40;3.67;;;2.05;;
31676;SDS011;18385;51.572;6.578;2023-02-28T08:29:05;7.22;;;1.77;;
31676;SDS011;18385;51.572;6.578;2023-02-28T08:31:31;7.20;;;2.45;;
31676;SDS011;18385;51.572;6.578;2023-02-28T08:33:57;6.57;;;2.13;;
31676;SDS011;18385;51.572;6.578;2023-02-28T08:36:24;4.65;;;2.17;;
31676;SDS011;18385;51.572;6.578;2023-02-28T08:38:51;4.10;;;1.60;;
31676;SDS011;18385;51.572;6.578;2023-02-28T08:41:17;4.57;;;1.55;;
31676;SDS011;18385;51.572;6.578;2023-02-28T08:43:43;5.55;;;1.80;;
31676;SDS011;18385;51.572;6.578;2023-02-28T08:46:11;6.13;;;2.03;;
31676;SDS011;18385;51.572;6.578;2023-02-28T08:48:39;2.50;;;1.30;;
31676;SDS011;18385;51.572;6.578;2023-02-28T08:51:07;4.07;;;1.58;;
31676;SDS011;18385;51.572;6.578;2023-02-28T08:53:35;2.83;;;1.65;;
31676;SDS011;18385;51.572;6.578;2023-02-28T08:56:02;3.40;;;1.60;;
31676;SDS011;18385;51.572;6.578;2023-02-28T08:58:30;4.35;;;1.70;;
31676;SDS011;18385;51.572;6.578;2023-02-28T09:00:56;2.60;;;1.30;;
31676;SDS011;18385;51.572;6.578;2023-02-28T09:03:22;2.70;;;1.30;;
31676;SDS011;18385;51.572;6.578;2023-02-28T09:06:07;4.85;;;1.30;;
31676;SDS011;18385;51.572;6.578;2023-02-28T09:08:33;3.20;;;1.05;;
31676;SDS011;18385;51.572;6.578;2023-02-28T09:11:00;2.20;;;1.17;;
31676;SDS011;18385;51.572;6.578;2023-02-28T09:13:27;2.72;;;1.10;;
31676;SDS011;18385;51.572;6.578;2023-02-28T09:15:53;1.92;;;1.08;;
31676;SDS011;18385;51.572;6.578;2023-02-28T09:18:19;1.80;;;0.88;;
31676;SDS011;18385;51.572;6.578;2023-02-28T09:20:46;1.45;;;0.88;;
31676;SDS011;18385;51.572;6.578;2023-02-28T09:23:12;2.53;;;1.10;;
31676;SDS011;18385;51.572;6.578;2023-02-28T09:25:38;3.92;;;0.60;;
31676;SDS011;18385;51.572;6.578;2023-02-28T09:28:19;1.88;;;1.30;;
31676;SDS011;18385;51.572;6.578;2023-02-28T09:30:50;1.73;;;0.93;;
31676;SDS011;18385;51.572;6.578;2023-02-28T09:33:17;1.95;;;0.60;;
31676;SDS011;18385;51.572;6.578;2023-02-28T09:35:46;2.63;;;1.27;;
31676;SDS011;18385;51.572;6.578;2023-02-28T09:38:13;2.20;;;0.80;;
31676;SDS011;18385;51.572;6.578;2023-02-28T09:40:44;1.33;;;0.75;;
31676;SDS011;18385;51.572;6.578;2023-02-28T09:43:24;1.80;;;0.90;;
31676;SDS011;18385;51.572;6.578;2023-02-28T09:45:55;2.35;;;1.30;;
31676;SDS011;18385;51.572;6.578;2023-02-28T09:48:35;1.55;;;0.68;;
31676;SDS011;18385;51.572;6.578;2023-02-28T09:51:14;2.75;;;1.20;;
31676;SDS011;18385;51.572;6.578;2023-02-28T09:53:47;2.33;;;0.80;;
31676;SDS011;18385;51.572;6.578;2023-02-28T09:56:24;1.35;;;0.70;;
31676;SDS011;18385;51.572;6.578;2023-02-28T09:58:54;1.60;;;0.82;;
31676;SDS011;18385;51.572;6.578;2023-02-28T10:01:39;2.72;;;1.10;;
31676;SDS011;18385;51.572;6.578;2023-02-28T10:06:58;2.22;;;1.00;;
31676;SDS011;18385;51.572;6.578;2023-02-28T10:09:32;1.95;;;0.88;;
31676;SDS011;18385;51.572;6.578;2023-02-28T10:12:00;2.20;;;0.77;;
31676;SDS011;18385;51.572;6.578;2023-02-28T10:14:30;3.03;;;0.70;;
31676;SDS011;18385;51.572;6.578;2023-02-28T10:17:03;2.90;;;0.70;;
31676;SDS011;18385;51.572;6.578;2023-02-28T10:19:41;1.52;;;0.70;;
31676;SDS011;18385;51.572;6.578;2023-02-28T10:22:38;2.00;;;0.90;;
31676;SDS011;18385;51.572;6.578;2023-02-28T10:25:22;1.80;;;0.65;;
31676;SDS011;18385;51.572;6.578;2023-02-28T10:27:53;2.05;;;0.63;;
31676;SDS011;18385;51.572;6.578;2023-02-28T10:30:30;1.60;;;0.80;;
31676;SDS011;18385;51.572;6.578;2023-02-28T10:32:56;2.72;;;1.42;;
31676;SDS011;18385;51.572;6.578;2023-02-28T10:35:23;2.72;;;1.10;;
31676;SDS011;18385;51.572;6.578;2023-02-28T10:37:51;2.15;;;0.80;;
31676;SDS011;18385;51.572;6.578;2023-02-28T10:43:27;1.25;;;0.60;;
31676;SDS011;18385;51.572;6.578;2023-02-28T10:45:51;1.00;;;0.60;;
31676;SDS011;18385;51.572;6.578;2023-02-28T10:49:03;1.98;;;0.70;;
31676;SDS011;18385;51.572;6.578;2023-02-28T10:51:34;2.20;;;0.75;;
31676;SDS011;18385;51.572;6.578;2023-02-28T10:54:03;2.75;;;0.95;;
31676;SDS011;18385;51.572;6.578;2023-02-28T10:56:30;1.48;;;0.73;;
31676;SDS011;18385;51.572;6.578;2023-02-28T11:01:42;1.70;;;0.77;;
31676;SDS011;18385;51.572;6.578;2023-02-28T11:04:18;2.22;;;0.70;;
31676;SDS011;18385;51.572;6.578;2023-02-28T11:06:44;1.55;;;0.68;;
31676;SDS011;18385;51.572;6.578;2023-02-28T11:11:51;1.45;;;0.60;;
31676;SDS011;18385;51.572;6.578;2023-02-28T11:14:24;1.50;;;0.55;;
31676;SDS011;18385;51.572;6.578;2023-02-28T11:16:52;1.48;;;0.68;;
31676;SDS011;18385;51.572;6.578;2023-02-28T11:19:22;1.50;;;0.68;;
31676;SDS011;18385;51.572;6.578;2023-02-28T11:22:02;1.40;;;1.10;;
31676;SDS011;18385;51.572;6.578;2023-02-28T11:24:33;2.00;;;0.65;;
31676;SDS011;18385;51.572;6.578;2023-02-28T11:27:05;1.60;;;0.70;;
31676;SDS011;18385;51.572;6.578;2023-02-28T11:29:32;2.10;;;0.82;;
31676;SDS011;18385;51.572;6.578;2023-02-28T11:32:13;2.23;;;0.93;;
31676;SDS011;18385;51.572;6.578;2023-02-28T11:34:46;2.47;;;1.30;;
31676;SDS011;18385;51.572;6.578;2023-02-28T11:37:24;3.50;;;1.23;;
31676;SDS011;18385;51.572;6.578;2023-02-28T11:39:52;2.90;;;1.02;;
31676;SDS011;18385;51.572;6.578;2023-02-28T11:42:30;2.65;;;1.42;;
31676;SDS011;18385;51.572;6.578;2023-02-28T11:56:10;2.33;;;1.10;;
31676;SDS011;18385;51.572;6.578;2023-02-28T11:58:49;2.72;;;1.35;;
31676;SDS011;18385;51.572;6.578;2023-02-28T12:06:43;2.78;;;1.25;;
31676;SDS011;18385;51.572;6.578;2023-02-28T12:17:51;2.28;;;1.40;;
31676;SDS011;18385;51.572;6.578;2023-02-28T12:20:40;2.47;;;1.40;;
31676;SDS011;18385;51.572;6.578;2023-02-28T12:28:47;2.25;;;1.10;;
31676;SDS011;18385;51.572;6.578;2023-02-28T12:31:21;3.63;;;1.45;;
31676;SDS011;18385;51.572;6.578;2023-02-28T12:33:53;1.92;;;0.90;;
31676;SDS011;18385;51.572;6.578;2023-02-28T12:36:25;4.18;;;1.35;;
31676;SDS011;18385;51.572;6.578;2023-02-28T12:38:55;3.15;;;1.05;;
31676;SDS011;18385;51.572;6.578;2023-02-28T12:41:41;2.58;;;0.98;;
31676;SDS011;18385;51.572;6.578;2023-02-28T12:46:54;2.80;;;0.88;;
31676;SDS011;18385;51.572;6.578;2023-02-28T12:49:26;2.35;;;0.75;;
31676;SDS011;18385;51.572;6.578;2023-02-28T12:52:00;2.75;;;0.90;;
31676;SDS011;18385;51.572;6.578;2023-02-28T13:00:22;0.98;;;0.65;;
31676;SDS011;18385;51.572;6.578;2023-02-28T13:06:24;3.72;;;0.95;;
31676;SDS011;18385;51.572;6.578;2023-02-28T13:11:06;3.40;;;1.10;;
31676;SDS011;18385;51.572;6.578;2023-02-28T13:13:47;2.17;;;1.27;;
31676;SDS011;18385;51.572;6.578;2023-02-28T13:16:13;2.35;;;0.98;;
31676;SDS011;18385;51.572;6.578;2023-02-28T13:18:40;1.85;;;1.08;;
31676;SDS011;18385;51.572;6.578;2023-02-28T13:21:09;1.75;;;1.20;;
31676;SDS011;18385;51.572;6.578;2023-02-28T13:26:21;3.42;;;1.70;;
31676;SDS011;18385;51.572;6.578;2023-02-28T13:32:18;1.63;;;0.90;;
31676;SDS011;18385;51.572;6.578;2023-02-28T13:34:33;2.33;;;1.10;;
31676;SDS011;18385;51.572;6.578;2023-02-28T13:37:36;1.88;;;0.80;;
31676;SDS011;18385;51.572;6.578;2023-02-28T13:39:57;2.35;;;0.93;;
31676;SDS011;18385;51.572;6.578;2023-02-28T13:42:33;2.42;;;1.27;;
31676;SDS011;18385;51.572;6.578;2023-02-28T13:47:42;1.90;;;1.00;;
31676;SDS011;18385;51.572;6.578;2023-02-28T14:03:45;2.15;;;0.93;;
31676;SDS011;18385;51.572;6.578;2023-02-28T14:11:27;2.72;;;1.02;;
31676;SDS011;18385;51.572;6.578;2023-02-28T14:13:58;2.10;;;0.90;;
31676;SDS011;18385;51.572;6.578;2023-02-28T14:16:25;2.08;;;0.82;;
31676;SDS011;18385;51.572;6.578;2023-02-28T14:18:56;1.80;;;1.00;;
31676;SDS011;18385;51.572;6.578;2023-02-28T14:21:33;1.65;;;0.68;;
31676;SDS011;18385;51.572;6.578;2023-02-28T14:26:55;1.45;;;0.80;;
31676;SDS011;18385;51.572;6.578;2023-02-28T14:35:20;1.73;;;0.90;;
31676;SDS011;18385;51.572;6.578;2023-02-28T14:37:50;2.40;;;1.02;;
31676;SDS011;18385;51.572;6.578;2023-02-28T14:40:23;3.38;;;1.42;;
31676;SDS011;18385;51.572;6.578;2023-02-28T14:42:56;2.35;;;0.60;;
31676;SDS011;18385;51.572;6.578;2023-02-28T14:45:24;2.55;;;0.98;;
31676;SDS011;18385;51.572;6.578;2023-02-28T14:47:55;2.72;;;0.85;;
31676;SDS011;18385;51.572;6.578;2023-02-28T14:50:23;2.83;;;0.60;;
31676;SDS011;18385;51.572;6.578;2023-02-28T14:52:56;2.05;;;0.75;;
31676;SDS011;18385;51.572;6.578;2023-02-28T14:55:24;1.67;;;0.80;;
31676;SDS011;18385;51.572;6.578;2023-02-28T14:57:57;4.35;;;0.77;;
31676;SDS011;18385;51.572;6.578;2023-02-28T15:00:30;2.08;;;0.82;;
31676;SDS011;18385;51.572;6.578;2023-02-28T15:02:58;1.42;;;0.88;;
31676;SDS011;18385;51.572;6.578;2023-02-28T15:05:29;1.83;;;0.73;;
31676;SDS011;18385;51.572;6.578;2023-02-28T15:10:30;2.58;;;0.80;;
31676;SDS011;18385;51.572;6.578;2023-02-28T15:12:57;1.88;;;0.90;;
31676;SDS011;18385;51.572;6.578;2023-02-28T15:18:21;3.05;;;0.95;;
31676;SDS011;18385;51.572;6.578;2023-02-28T15:21:13;2.42;;;1.20;;
31676;SDS011;18385;51.572;6.578;2023-02-28T15:23:43;2.45;;;0.93;;
31676;SDS011;18385;51.572;6.578;2023-02-28T15:26:15;1.30;;;0.60;;
31676;SDS011;18385;51.572;6.578;2023-02-28T15:28:43;1.45;;;0.88;;
31676;SDS011;18385;51.572;6.578;2023-02-28T15:31:19;1.25;;;0.82;;
31676;SDS011;18385;51.572;6.578;2023-02-28T15:36:23;3.72;;;1.48;;
31676;SDS011;18385;51.572;6.578;2023-02-28T15:38:52;1.60;;;0.90;;
31676;SDS011;18385;51.572;6.578;2023-02-28T15:41:28;2.08;;;0.70;;
31676;SDS011;18385;51.572;6.578;2023-02-28T15:46:43;2.45;;;1.10;;
31676;SDS011;18385;51.572;6.578;2023-02-28T15:49:20;2.22;;;0.95;;
31676;SDS011;18385;51.572;6.578;2023-02-28T15:51:48;2.00;;;0.90;;
31676;SDS011;18385;51.572;6.578;2023-02-28T15:54:20;1.95;;;0.90;;
31676;SDS011;18385;51.572;6.578;2023-02-28T15:56:55;1.40;;;0.73;;
31676;SDS011;18385;51.572;6.578;2023-02-28T15:59:25;3.55;;;1.67;;
31676;SDS011;18385;51.572;6.578;2023-02-28T16:04:34;3.25;;;1.38;;
31676;SDS011;18385;51.572;6.578;2023-02-28T16:07:01;2.70;;;1.08;;
31676;SDS011;18385;51.572;6.578;2023-02-28T16:09:29;3.50;;;1.05;;
31676;SDS011;18385;51.572;6.578;2023-02-28T16:11:56;1.75;;;1.10;;
31676;SDS011;18385;51.572;6.578;2023-02-28T16:14:28;2.58;;;1.13;;
31676;SDS011;18385;51.572;6.578;2023-02-28T16:17:05;2.25;;;1.10;;
31676;SDS011;18385;51.572;6.578;2023-02-28T16:19:35;3.50;;;1.13;;
31676;SDS011;18385;51.572;6.578;2023-02-28T16:22:00;2.05;;;1.02;;
31676;SDS011;18385;51.572;6.578;2023-02-28T16:24:26;3.05;;;1.20;;
31676;SDS011;18385;51.572;6.578;2023-02-28T16:26:52;2.85;;;1.13;;
31676;SDS011;18385;51.572;6.578;2023-02-28T16:29:24;3.50;;;1.33;;
31676;SDS011;18385;51.572;6.578;2023-02-28T16:31:54;2.33;;;1.25;;
31676;SDS011;18385;51.572;6.578;2023-02-28T16:34:20;3.13;;;1.17;;
31676;SDS011;18385;51.572;6.578;2023-02-28T16:36:47;3.47;;;1.20;;
31676;SDS011;18385;51.572;6.578;2023-02-28T16:39:13;3.08;;;1.20;;
31676;SDS011;18385;51.572;6.578;2023-02-28T16:41:41;2.42;;;1.40;;
31676;SDS011;18385;51.572;6.578;2023-02-28T16:46:39;3.65;;;1.30;;
31676;SDS011;18385;51.572;6.578;2023-02-28T16:49:08;2.17;;;1.20;;
31676;SDS011;18385;51.572;6.578;2023-02-28T16:51:36;3.60;;;1.60;;
31676;SDS011;18385;51.572;6.578;2023-02-28T16:54:02;2.05;;;1.13;;
31676;SDS011;18385;51.572;6.578;2023-02-28T16:56:28;2.55;;;1.40;;
31676;SDS011;18385;51.572;6.578;2023-02-28T16:58:54;4.25;;;1.52;;
31676;SDS011;18385;51.572;6.578;2023-02-28T17:01:22;2.67;;;1.42;;
31676;SDS011;18385;51.572;6.578;2023-02-28T17:03:48;3.00;;;1.40;;
31676;SDS011;18385;51.572;6.578;2023-02-28T17:06:22;2.55;;;1.83;;
31676;SDS011;18385;51.572;6.578;2023-02-28T17:08:53;4.00;;;1.83;;
31676;SDS011;18385;51.572;6.578;2023-02-28T17:11:19;12.25;;;2.78;;
31676;SDS011;18385;51.572;6.578;2023-02-28T17:13:45;6.55;;;2.05;;
31676;SDS011;18385;51.572;6.578;2023-02-28T17:16:45;3.10;;;1.90;;
31676;SDS011;18385;51.572;6.578;2023-02-28T17:19:10;3.88;;;1.75;;
31676;SDS011;18385;51.572;6.578;2023-02-28T17:21:38;2.72;;;1.52;;
31676;SDS011;18385;51.572;6.578;2023-02-28T17:24:07;2.15;;;1.50;;
31676;SDS011;18385;51.572;6.578;2023-02-28T17:26:33;3.13;;;1.70;;
31676;SDS011;18385;51.572;6.578;2023-02-28T17:28:58;4.85;;;1.80;;